Time;durP1;ratioP1;P1;durP2;ratioP2;P2;SDS_P1;SDS_P2;PMS_P1;PMS_P2;Temp;Humidity;BMP_temperature;BMP_pressure;BME280_temperature;BME280_humidity;BME280_pressure;Samples;Min_cycle;Max_cycle;Signal;HPM_P1;HPM_P2
2024/03/12 00:00:56;;;;;;;2.22;2.03;;;;;;;;;;6246405;22;20230;-46
2024/03/12 00:03:27;;;;;;;2.95;1.90;;;;;;;;;;6245748;23;20184;-46
2024/03/12 00:05:55;;;;;;;2.78;2.58;;;;;;;;;;6246461;23;20162;-47
2024/03/12 00:08:24;;;;;;;3.08;2.65;;;;;;;;;;6246279;23;20193;-48
2024/03/12 00:10:51;;;;;;;2.42;2.20;;;;;;;;;;6246058;22;20183;-49
2024/03/12 00:13:19;;;;;;;2.15;2.05;;;;;;;;;;6245285;22;20197;-49
2024/03/12 00:15:46;;;;;;;3.15;2.53;;;;;;;;;;6245807;22;20179;-47
2024/03/12 00:18:14;;;;;;;3.63;2.83;;;;;;;;;;6245894;22;20581;-48
2024/03/12 00:20:43;;;;;;;3.90;3.35;;;;;;;;;;6245353;22;20256;-47
2024/03/12 00:23:10;;;;;;;3.40;3.10;;;;;;;;;;6245596;23;20174;-47
2024/03/12 00:25:40;;;;;;;2.58;2.38;;;;;;;;;;6245685;22;20231;-47
2024/03/12 00:28:08;;;;;;;4.85;3.00;;;;;;;;;;6245880;23;20208;-48
2024/03/12 00:30:40;;;;;;;3.38;3.13;;;;;;;;;;6246308;22;20173;-49
2024/03/12 00:33:08;;;;;;;3.28;2.97;;;;;;;;;;6245863;23;20177;-49
2024/03/12 00:35:38;;;;;;;2.35;2.15;;;;;;;;;;6245999;22;20176;-48
2024/03/12 00:38:06;;;;;;;2.65;2.45;;;;;;;;;;6245676;22;20204;-49
2024/03/12 00:40:36;;;;;;;4.03;3.63;;;;;;;;;;6245348;22;20208;-49
2024/03/12 00:43:06;;;;;;;2.30;2.10;;;;;;;;;;6245689;23;20247;-47
2024/03/12 00:45:37;;;;;;;6.38;2.83;;;;;;;;;;6246040;22;20165;-48
2024/03/12 00:48:06;;;;;;;2.88;2.67;;;;;;;;;;6245758;23;20203;-46
2024/03/12 00:50:34;;;;;;;2.30;2.10;;;;;;;;;;6245462;23;20185;-47
2024/03/12 00:53:02;;;;;;;2.22;2.03;;;;;;;;;;6244748;22;20277;-47
2024/03/12 00:55:29;;;;;;;2.70;2.50;;;;;;;;;;6245434;22;20257;-47
2024/03/12 00:57:58;;;;;;;2.92;2.72;;;;;;;;;;6245661;22;20506;-47
2024/03/12 01:00:28;;;;;;;2.72;2.53;;;;;;;;;;6245832;23;20541;-46
2024/03/12 01:02:59;;;;;;;2.53;2.33;;;;;;;;;;6245199;23;20208;-47
2024/03/12 01:05:30;;;;;;;3.45;2.90;;;;;;;;;;6245919;23;20595;-47
2024/03/12 01:07:59;;;;;;;3.70;3.00;;;;;;;;;;6245351;23;20197;-47
2024/03/12 01:10:28;;;;;;;2.65;2.42;;;;;;;;;;6245736;23;20580;-47
2024/03/12 01:12:57;;;;;;;3.00;2.80;;;;;;;;;;6245342;22;20630;-47
2024/03/12 01:15:27;;;;;;;2.80;2.60;;;;;;;;;;6245156;23;20211;-47
2024/03/12 01:17:55;;;;;;;3.10;2.90;;;;;;;;;;6245192;23;20203;-50
2024/03/12 01:20:24;;;;;;;3.67;3.38;;;;;;;;;;6244925;22;20173;-51
2024/03/12 01:22:53;;;;;;;3.03;2.83;;;;;;;;;;6245255;23;20176;-48
2024/03/12 01:25:22;;;;;;;3.78;3.42;;;;;;;;;;6245503;22;20181;-49
2024/03/12 01:27:51;;;;;;;3.20;2.90;;;;;;;;;;6245114;22;20201;-48
2024/03/12 01:30:20;;;;;;;4.57;3.30;;;;;;;;;;6245416;23;20211;-48
2024/03/12 01:32:51;;;;;;;3.60;3.25;;;;;;;;;;6245136;22;20618;-47
2024/03/12 01:35:20;;;;;;;4.05;3.65;;;;;;;;;;6245108;23;20235;-48
2024/03/12 01:37:49;;;;;;;3.70;3.38;;;;;;;;;;6245315;23;20276;-47
2024/03/12 01:40:21;;;;;;;3.55;3.15;;;;;;;;;;6244934;22;20203;-46
2024/03/12 01:42:49;;;;;;;4.45;3.92;;;;;;;;;;6244880;22;20169;-46
2024/03/12 01:45:20;;;;;;;2.97;2.78;;;;;;;;;;6245560;23;20503;-47
2024/03/12 01:47:49;;;;;;;4.88;2.90;;;;;;;;;;6245428;23;20196;-46
2024/03/12 01:50:18;;;;;;;3.03;2.75;;;;;;;;;;6244640;22;20179;-46
2024/03/12 01:52:46;;;;;;;3.53;3.22;;;;;;;;;;6244696;23;20180;-48
2024/03/12 01:55:14;;;;;;;3.15;2.85;;;;;;;;;;6245125;23;20177;-49
2024/03/12 01:57:42;;;;;;;3.17;2.97;;;;;;;;;;6244392;22;20216;-46
2024/03/12 02:00:13;;;;;;;4.68;3.80;;;;;;;;;;6244733;22;20177;-46
2024/03/12 02:02:42;;;;;;;3.03;2.83;;;;;;;;;;6244626;23;20165;-46
2024/03/12 02:05:11;;;;;;;2.35;2.15;;;;;;;;;;6245194;23;20244;-46
2024/03/12 02:07:40;;;;;;;2.17;2.00;;;;;;;;;;6244515;22;20196;-46
2024/03/12 02:10:09;;;;;;;2.83;2.55;;;;;;;;;;6244544;22;20497;-48
2024/03/12 02:12:37;;;;;;;2.83;2.63;;;;;;;;;;6244731;22;20209;-47
2024/03/12 02:15:05;;;;;;;2.53;2.33;;;;;;;;;;6244655;22;20661;-48
2024/03/12 02:17:33;;;;;;;3.15;2.92;;;;;;;;;;6244265;22;20203;-47
2024/03/12 02:20:00;;;;;;;6.10;4.07;;;;;;;;;;6244560;22;20508;-47
2024/03/12 02:22:31;;;;;;;3.00;2.80;;;;;;;;;;6243644;22;20202;-48
2024/03/12 02:25:00;;;;;;;3.53;2.97;;;;;;;;;;6244969;23;20192;-49
2024/03/12 02:27:28;;;;;;;3.22;2.92;;;;;;;;;;6244898;23;20197;-47
2024/03/12 02:29:55;;;;;;;2.42;2.22;;;;;;;;;;6244816;22;20683;-49
2024/03/12 02:32:23;;;;;;;2.50;2.30;;;;;;;;;;6244316;22;20642;-47
2024/03/12 02:34:50;;;;;;;2.55;2.35;;;;;;;;;;6244281;22;20584;-50
2024/03/12 02:37:21;;;;;;;3.53;3.22;;;;;;;;;;6244503;22;20193;-47
2024/03/12 02:39:48;;;;;;;2.88;2.58;;;;;;;;;;6245160;22;20646;-48
2024/03/12 02:42:17;;;;;;;2.75;2.55;;;;;;;;;;6244452;22;20231;-48
2024/03/12 02:44:44;;;;;;;2.47;2.28;;;;;;;;;;6244805;22;20640;-47
2024/03/12 02:47:12;;;;;;;2.88;2.67;;;;;;;;;;6244496;22;20589;-47
2024/03/12 02:49:40;;;;;;;2.90;2.70;;;;;;;;;;6244114;22;20195;-49
2024/03/12 02:52:10;;;;;;;2.72;2.53;;;;;;;;;;6243936;22;20173;-49
2024/03/12 02:54:37;;;;;;;2.65;2.45;;;;;;;;;;6244358;22;20676;-47
2024/03/12 02:57:05;;;;;;;2.30;2.10;;;;;;;;;;6244151;22;20279;-47
2024/03/12 02:59:34;;;;;;;2.53;2.33;;;;;;;;;;6244036;22;20179;-50
2024/03/12 03:02:01;;;;;;;2.40;2.20;;;;;;;;;;6243509;22;20179;-52
2024/03/12 03:04:31;;;;;;;2.42;2.22;;;;;;;;;;6244228;22;20169;-47
2024/03/12 03:07:00;;;;;;;2.30;2.08;;;;;;;;;;6244565;22;20552;-46
2024/03/12 03:09:27;;;;;;;2.72;2.53;;;;;;;;;;6244287;23;20184;-47
2024/03/12 03:11:55;;;;;;;2.42;2.22;;;;;;;;;;6243704;22;20492;-46
2024/03/12 03:14:23;;;;;;;2.58;2.38;;;;;;;;;;6244115;22;20277;-47
2024/03/12 03:16:54;;;;;;;3.30;3.00;;;;;;;;;;6244083;22;20217;-48
2024/03/12 03:19:22;;;;;;;2.60;2.40;;;;;;;;;;6244238;23;20207;-49
2024/03/12 03:21:50;;;;;;;2.60;2.10;;;;;;;;;;6244202;23;20498;-50
2024/03/12 03:24:17;;;;;;;2.50;2.30;;;;;;;;;;6244335;22;20172;-49
2024/03/12 03:26:45;;;;;;;2.35;2.15;;;;;;;;;;6244040;22;20243;-47
2024/03/12 03:29:12;;;;;;;2.17;2.08;;;;;;;;;;6244053;22;20721;-48
2024/03/12 03:31:41;;;;;;;2.25;2.10;;;;;;;;;;6243417;22;20177;-49
2024/03/12 03:34:10;;;;;;;2.38;2.17;;;;;;;;;;6245507;23;20173;-49
2024/03/12 03:36:39;;;;;;;2.80;2.42;;;;;;;;;;6246517;23;20209;-48
2024/03/12 03:39:08;;;;;;;2.60;2.40;;;;;;;;;;6246632;23;20555;-47
2024/03/12 03:41:35;;;;;;;3.20;3.00;;;;;;;;;;6246284;23;20180;-48
2024/03/12 03:44:03;;;;;;;2.88;2.67;;;;;;;;;;6245824;22;20652;-47
2024/03/12 03:46:31;;;;;;;3.20;2.42;;;;;;;;;;6245849;22;20219;-47
2024/03/12 03:48:58;;;;;;;2.88;2.67;;;;;;;;;;6245991;22;20183;-47
2024/03/12 03:51:27;;;;;;;2.75;2.40;;;;;;;;;;6246204;22;20177;-47
2024/03/12 03:53:54;;;;;;;3.08;2.88;;;;;;;;;;6245353;22;20193;-46
2024/03/12 03:56:23;;;;;;;3.40;3.10;;;;;;;;;;6246164;22;20203;-47
2024/03/12 03:58:52;;;;;;;2.92;2.72;;;;;;;;;;6245949;23;20227;-47
2024/03/12 04:01:20;;;;;;;2.85;2.63;;;;;;;;;;6246254;23;20212;-50
2024/03/12 04:03:48;;;;;;;2.78;2.55;;;;;;;;;;6245845;22;20209;-48
2024/03/12 04:06:15;;;;;;;4.25;3.20;;;;;;;;;;6245945;22;20177;-48
2024/03/12 04:08:46;;;;;;;3.38;3.08;;;;;;;;;;6246541;23;20223;-47
2024/03/12 04:11:13;;;;;;;2.92;2.72;;;;;;;;;;6242284;23;20184;-47
2024/03/12 04:13:41;;;;;;;3.40;3.10;;;;;;;;;;6245922;22;20177;-46
2024/03/12 04:16:10;;;;;;;4.05;2.67;;;;;;;;;;6245425;22;20203;-49
2024/03/12 04:18:38;;;;;;;2.88;2.67;;;;;;;;;;6246041;23;20530;-46
2024/03/12 04:21:06;;;;;;;2.72;2.53;;;;;;;;;;6245470;22;20188;-49
2024/03/12 04:23:33;;;;;;;2.95;2.75;;;;;;;;;;6245083;22;20173;-49
2024/03/12 04:26:03;;;;;;;3.33;2.97;;;;;;;;;;6245960;22;20169;-47
2024/03/12 04:28:31;;;;;;;3.78;3.33;;;;;;;;;;6245901;23;20201;-47
2024/03/12 04:30:59;;;;;;;4.03;3.28;;;;;;;;;;6245956;23;20180;-50
2024/03/12 04:33:26;;;;;;;3.85;3.53;;;;;;;;;;6245184;22;20177;-47
2024/03/12 04:35:54;;;;;;;3.35;3.05;;;;;;;;;;6244995;22;20201;-46
2024/03/12 04:38:21;;;;;;;3.38;3.08;;;;;;;;;;6245452;22;20199;-45
2024/03/12 04:40:50;;;;;;;3.20;3.00;;;;;;;;;;6245740;22;20181;-48
2024/03/12 04:43:19;;;;;;;3.65;3.35;;;;;;;;;;6245002;23;20184;-46
2024/03/12 04:45:46;;;;;;;2.97;2.78;;;;;;;;;;6245497;22;20204;-48
2024/03/12 04:48:14;;;;;;;3.50;3.20;;;;;;;;;;6245042;22;20679;-46
2024/03/12 04:50:41;;;;;;;3.95;2.88;;;;;;;;;;6245239;22;20195;-46
2024/03/12 04:53:08;;;;;;;3.55;3.25;;;;;;;;;;6244641;22;20208;-47
2024/03/12 04:55:36;;;;;;;3.92;3.35;;;;;;;;;;6244726;22;20200;-47
2024/03/12 04:58:05;;;;;;;3.28;2.80;;;;;;;;;;6245367;22;20688;-47
2024/03/12 05:00:33;;;;;;;2.65;2.45;;;;;;;;;;6245397;22;20173;-47
2024/03/12 05:03:01;;;;;;;3.65;3.30;;;;;;;;;;6245082;22;20177;-47
2024/03/12 05:05:28;;;;;;;2.55;2.35;;;;;;;;;;6244912;22;20650;-48
2024/03/12 05:07:56;;;;;;;2.85;2.60;;;;;;;;;;6245143;22;20576;-51
2024/03/12 05:10:24;;;;;;;3.20;2.90;;;;;;;;;;6244849;22;20231;-48
2024/03/12 05:12:51;;;;;;;3.55;3.17;;;;;;;;;;6244824;22;20698;-50
2024/03/12 05:15:19;;;;;;;2.80;2.60;;;;;;;;;;6245087;22;20173;-52
2024/03/12 05:17:49;;;;;;;3.47;3.22;;;;;;;;;;6245600;23;20193;-50
2024/03/12 05:20:18;;;;;;;2.88;2.67;;;;;;;;;;6245383;22;20235;-49
2024/03/12 05:22:46;;;;;;;2.53;2.30;;;;;;;;;;6245269;23;20263;-50
2024/03/12 05:25:22;;;;;;;2.92;2.63;;;;;;;;;;6245113;22;20252;-47
2024/03/12 05:27:50;;;;;;;2.80;2.60;;;;;;;;;;6245436;22;20197;-47
2024/03/12 05:30:20;;;;;;;2.80;2.50;;;;;;;;;;6245083;23;20177;-47
2024/03/12 05:32:49;;;;;;;2.50;2.30;;;;;;;;;;6245193;23;20689;-47
2024/03/12 05:35:21;;;;;;;3.38;2.47;;;;;;;;;;6245104;22;20256;-49
2024/03/12 05:38:10;;;;;;;3.55;3.13;;;;;;;;;;6245248;23;20208;-47
2024/03/12 05:40:43;;;;;;;3.97;3.60;;;;;;;;;;6245372;23;20762;-48
2024/03/12 05:48:42;;;;;;;2.92;2.72;;;;;;;;;;6244924;23;20314;-50
2024/03/12 05:51:10;;;;;;;3.47;3.17;;;;;;;;;;6244412;22;20173;-47
2024/03/12 05:53:38;;;;;;;3.10;2.88;;;;;;;;;;6244979;22;20527;-46
2024/03/12 05:56:09;;;;;;;2.90;2.60;;;;;;;;;;6244662;23;20737;-49
2024/03/12 05:58:36;;;;;;;2.92;2.72;;;;;;;;;;6244976;23;20694;-47
2024/03/12 06:01:04;;;;;;;3.33;3.03;;;;;;;;;;6244888;22;20252;-46
2024/03/12 06:03:32;;;;;;;2.90;2.70;;;;;;;;;;6244786;23;20173;-52
2024/03/12 06:06:04;;;;;;;2.60;2.40;;;;;;;;;;6244926;22;20507;-47
2024/03/12 06:08:31;;;;;;;3.00;2.80;;;;;;;;;;6244945;23;20216;-47
2024/03/12 06:10:58;;;;;;;3.35;2.95;;;;;;;;;;6244588;22;20177;-49
2024/03/12 06:13:27;;;;;;;3.95;3.65;;;;;;;;;;6244146;22;20478;-47
2024/03/12 06:15:55;;;;;;;5.47;3.15;;;;;;;;;;6244842;23;20677;-51
2024/03/12 06:18:23;;;;;;;3.80;3.50;;;;;;;;;;6244656;22;20247;-49
2024/03/12 06:20:50;;;;;;;4.30;3.90;;;;;;;;;;6244159;22;20177;-48
2024/03/12 06:23:21;;;;;;;4.50;3.95;;;;;;;;;;6244534;22;20184;-47
2024/03/12 06:25:48;;;;;;;4.28;3.03;;;;;;;;;;6245130;22;20161;-47
2024/03/12 06:28:16;;;;;;;4.03;3.72;;;;;;;;;;6244293;22;20532;-48
2024/03/12 06:30:43;;;;;;;3.80;3.50;;;;;;;;;;6244850;22;20173;-47
2024/03/12 06:33:11;;;;;;;3.30;3.00;;;;;;;;;;6244504;23;20177;-48
2024/03/12 06:35:41;;;;;;;4.25;3.20;;;;;;;;;;6244687;22;20649;-52
2024/03/12 06:38:08;;;;;;;3.90;3.60;;;;;;;;;;6244593;23;20267;-48
2024/03/12 06:40:37;;;;;;;3.92;3.60;;;;;;;;;;6244548;22;20516;-50
2024/03/12 06:43:05;;;;;;;3.15;2.95;;;;;;;;;;6243841;22;20173;-49
2024/03/12 06:45:33;;;;;;;3.95;3.55;;;;;;;;;;6244694;22;20630;-47
2024/03/12 06:48:01;;;;;;;3.83;3.53;;;;;;;;;;6244666;23;20264;-50
2024/03/12 06:50:28;;;;;;;4.00;3.45;;;;;;;;;;6243800;22;20261;-49
2024/03/12 06:52:57;;;;;;;4.07;3.67;;;;;;;;;;6243754;22;20260;-50
2024/03/12 06:55:25;;;;;;;3.58;3.28;;;;;;;;;;6244748;23;20161;-49
2024/03/12 06:57:59;;;;;;;5.03;4.53;;;;;;;;;;6242151;23;20653;-47
2024/03/12 07:00:31;;;;;;;5.68;3.47;;;;;;;;;;6244791;23;20160;-47
2024/03/12 07:03:02;;;;;;;4.28;3.88;;;;;;;;;;6244450;23;20241;-48
2024/03/12 07:05:30;;;;;;;5.47;4.97;;;;;;;;;;6244389;23;20163;-48
2024/03/12 07:07:58;;;;;;;4.05;3.67;;;;;;;;;;6244210;22;20280;-47
2024/03/12 07:10:26;;;;;;;5.35;4.85;;;;;;;;;;6244328;22;20511;-51
2024/03/12 07:12:58;;;;;;;6.95;4.75;;;;;;;;;;6243845;22;20223;-50
2024/03/12 07:15:25;;;;;;;5.18;4.68;;;;;;;;;;6244480;23;20161;-49
2024/03/12 07:17:53;;;;;;;4.80;4.30;;;;;;;;;;6243699;22;20279;-48
2024/03/12 07:20:21;;;;;;;4.40;3.88;;;;;;;;;;6244304;22;20176;-47
2024/03/12 07:22:49;;;;;;;5.45;4.97;;;;;;;;;;6243995;23;20185;-48
2024/03/12 07:25:17;;;;;;;4.60;4.20;;;;;;;;;;6244073;22;20173;-49
2024/03/12 07:27:44;;;;;;;4.80;4.20;;;;;;;;;;6243925;22;20276;-49
2024/03/12 07:30:14;;;;;;;5.82;5.25;;;;;;;;;;6243621;22;20226;-50
2024/03/12 07:32:42;;;;;;;5.47;4.32;;;;;;;;;;6244478;23;20169;-49
2024/03/12 07:35:09;;;;;;;5.85;5.28;;;;;;;;;;6244177;22;20811;-49
2024/03/12 07:37:39;;;;;;;6.47;5.60;;;;;;;;;;6244187;22;20201;-47
2024/03/12 07:40:11;;;;;;;6.18;5.57;;;;;;;;;;6244443;23;20173;-48
2024/03/12 07:42:41;;;;;;;6.95;6.13;;;;;;;;;;6243753;23;20215;-50
2024/03/12 07:45:09;;;;;;;5.97;4.90;;;;;;;;;;6244023;23;20179;-52
2024/03/12 07:47:39;;;;;;;6.22;5.25;;;;;;;;;;6244162;22;20204;-49
2024/03/12 07:50:08;;;;;;;5.03;4.57;;;;;;;;;;6244851;23;20177;-49
2024/03/12 07:52:36;;;;;;;6.00;4.55;;;;;;;;;;6243897;22;20173;-48
2024/03/12 07:55:05;;;;;;;6.88;5.10;;;;;;;;;;6244145;22;20581;-48
2024/03/12 07:57:33;;;;;;;6.47;5.20;;;;;;;;;;6244179;23;20577;-48
2024/03/12 08:00:00;;;;;;;6.28;5.20;;;;;;;;;;6244053;22;20172;-48
2024/03/12 08:02:29;;;;;;;7.00;5.22;;;;;;;;;;6243898;22;20173;-48
2024/03/12 08:04:58;;;;;;;4.57;4.18;;;;;;;;;;6244438;23;20177;-47
2024/03/12 08:07:26;;;;;;;5.07;4.35;;;;;;;;;;6244359;22;20193;-48
2024/03/12 08:09:53;;;;;;;6.03;4.18;;;;;;;;;;6244444;22;20179;-49
2024/03/12 08:12:22;;;;;;;4.53;3.90;;;;;;;;;;6243675;22;20177;-48
2024/03/12 08:14:49;;;;;;;4.75;4.32;;;;;;;;;;6244694;22;20185;-48
2024/03/12 08:17:17;;;;;;;5.57;4.57;;;;;;;;;;6243771;23;20194;-49
2024/03/12 08:19:47;;;;;;;5.40;4.90;;;;;;;;;;6245308;23;20177;-49
2024/03/12 08:22:16;;;;;;;4.22;3.92;;;;;;;;;;6245947;23;20177;-48
2024/03/12 08:24:46;;;;;;;4.68;4.18;;;;;;;;;;6246434;23;20165;-50
2024/03/12 08:27:13;;;;;;;4.40;4.00;;;;;;;;;;6245800;22;20203;-48
2024/03/12 08:29:40;;;;;;;6.10;4.20;;;;;;;;;;6245543;22;20173;-48
2024/03/12 08:32:08;;;;;;;4.57;3.90;;;;;;;;;;6245381;22;20173;-48
2024/03/12 08:34:36;;;;;;;4.15;3.75;;;;;;;;;;6245823;22;20173;-49
2024/03/12 08:37:04;;;;;;;3.50;3.20;;;;;;;;;;6245433;22;20602;-49
2024/03/12 08:39:33;;;;;;;4.70;4.30;;;;;;;;;;6245624;22;20276;-50
2024/03/12 08:42:00;;;;;;;4.20;3.80;;;;;;;;;;6244687;22;20177;-49
2024/03/12 08:44:28;;;;;;;4.47;3.08;;;;;;;;;;6245118;22;20179;-49
2024/03/12 08:46:55;;;;;;;4.22;3.35;;;;;;;;;;6245550;22;20205;-49
2024/03/12 08:49:23;;;;;;;4.32;3.30;;;;;;;;;;6245729;22;20175;-51
2024/03/12 08:51:50;;;;;;;3.40;3.10;;;;;;;;;;6245310;22;20177;-52
2024/03/12 08:54:17;;;;;;;4.72;4.30;;;;;;;;;;6245253;22;20709;-46
2024/03/12 08:56:46;;;;;;;4.35;3.95;;;;;;;;;;6245021;22;20193;-48
2024/03/12 08:59:15;;;;;;;4.00;3.60;;;;;;;;;;6245147;22;20519;-47
2024/03/12 09:01:44;;;;;;;4.20;3.80;;;;;;;;;;6245576;23;20177;-49
2024/03/12 09:04:11;;;;;;;3.78;3.42;;;;;;;;;;6246041;23;20626;-48
2024/03/12 09:06:40;;;;;;;3.70;3.40;;;;;;;;;;6245437;22;20197;-48
2024/03/12 09:09:08;;;;;;;4.10;3.70;;;;;;;;;;6245785;23;20169;-47
2024/03/12 09:11:38;;;;;;;5.20;4.70;;;;;;;;;;6245172;22;20652;-47
2024/03/12 09:14:07;;;;;;;5.30;4.80;;;;;;;;;;6245617;23;20161;-48
2024/03/12 09:16:35;;;;;;;4.28;3.88;;;;;;;;;;6245482;23;20180;-48
2024/03/12 09:19:04;;;;;;;4.25;3.45;;;;;;;;;;6245089;22;20203;-47
2024/03/12 09:21:32;;;;;;;4.53;4.13;;;;;;;;;;6245318;22;20173;-47
2024/03/12 09:24:00;;;;;;;4.68;3.35;;;;;;;;;;6245448;22;20699;-47
2024/03/12 09:26:28;;;;;;;3.40;3.03;;;;;;;;;;6245229;22;20177;-50
2024/03/12 09:28:55;;;;;;;4.82;4.13;;;;;;;;;;6244895;22;20522;-51
2024/03/12 09:31:24;;;;;;;4.00;3.70;;;;;;;;;;6243691;22;20641;-47
2024/03/12 09:33:51;;;;;;;4.25;3.85;;;;;;;;;;6245373;22;20181;-49
2024/03/12 09:36:20;;;;;;;4.50;4.10;;;;;;;;;;6244921;22;20227;-46
2024/03/12 09:38:50;;;;;;;4.22;3.83;;;;;;;;;;6245434;22;20271;-48
2024/03/12 09:41:18;;;;;;;4.60;4.20;;;;;;;;;;6245104;23;20185;-49
2024/03/12 09:43:46;;;;;;;3.65;3.35;;;;;;;;;;6245046;23;20173;-50
2024/03/12 09:46:15;;;;;;;3.72;3.40;;;;;;;;;;6245023;23;20183;-47
2024/03/12 09:48:44;;;;;;;4.50;4.10;;;;;;;;;;6245250;23;20649;-46
2024/03/12 09:51:12;;;;;;;3.67;3.38;;;;;;;;;;6245009;23;20196;-48
2024/03/12 09:53:41;;;;;;;3.75;3.40;;;;;;;;;;6244556;22;20209;-48
2024/03/12 09:56:09;;;;;;;3.25;2.95;;;;;;;;;;6245409;23;20183;-48
2024/03/12 09:58:36;;;;;;;4.30;3.90;;;;;;;;;;6244586;23;20233;-48
2024/03/12 10:01:06;;;;;;;5.03;3.70;;;;;;;;;;6244785;22;20510;-49
2024/03/12 10:03:35;;;;;;;4.32;3.92;;;;;;;;;;6245224;23;20555;-48
2024/03/12 10:06:05;;;;;;;3.78;3.40;;;;;;;;;;6245307;23;20177;-48
2024/03/12 10:08:34;;;;;;;3.83;3.35;;;;;;;;;;6244769;22;20190;-48
2024/03/12 10:11:02;;;;;;;3.53;3.10;;;;;;;;;;6245051;23;20263;-50
2024/03/12 10:13:30;;;;;;;3.55;3.25;;;;;;;;;;6244549;23;20176;-50
2024/03/12 10:15:59;;;;;;;3.97;3.58;;;;;;;;;;6244244;22;20216;-48
2024/03/12 10:18:29;;;;;;;3.88;3.58;;;;;;;;;;6244640;23;20193;-48
2024/03/12 10:21:00;;;;;;;5.00;3.95;;;;;;;;;;6244912;23;20682;-48
2024/03/12 10:23:31;;;;;;;3.90;3.58;;;;;;;;;;6244819;23;20164;-49
2024/03/12 10:26:09;;;;;;;3.40;3.10;;;;;;;;;;6244790;23;20153;-48
2024/03/12 10:28:37;;;;;;;3.50;3.10;;;;;;;;;;6244807;23;20527;-48
2024/03/12 10:31:09;;;;;;;4.53;3.85;;;;;;;;;;6244638;22;20554;-48
2024/03/12 10:33:38;;;;;;;7.85;4.32;;;;;;;;;;6244971;23;20157;-52
2024/03/12 10:36:10;;;;;;;3.63;3.22;;;;;;;;;;6244240;22;20484;-48
2024/03/12 10:38:40;;;;;;;6.85;3.67;;;;;;;;;;6244849;22;20685;-48
2024/03/12 10:41:16;;;;;;;3.90;3.50;;;;;;;;;;6244840;22;20165;-50
2024/03/12 10:43:44;;;;;;;4.00;3.60;;;;;;;;;;6244415;23;20168;-48
2024/03/12 10:46:11;;;;;;;4.45;4.05;;;;;;;;;;6244940;23;20173;-49
2024/03/12 10:48:40;;;;;;;3.80;3.50;;;;;;;;;;6244283;22;20193;-50
2024/03/12 10:51:12;;;;;;;3.20;2.90;;;;;;;;;;6244425;22;20227;-49
2024/03/12 10:53:42;;;;;;;3.53;3.20;;;;;;;;;;6244523;23;20689;-49
2024/03/12 10:56:09;;;;;;;5.18;4.63;;;;;;;;;;6244771;23;20546;-49
2024/03/12 10:58:38;;;;;;;4.25;3.80;;;;;;;;;;6244173;23;20193;-53
2024/03/12 11:01:06;;;;;;;5.38;4.10;;;;;;;;;;6244398;22;20195;-49
2024/03/12 11:03:34;;;;;;;3.30;3.00;;;;;;;;;;6244445;22;20180;-47
2024/03/12 11:06:02;;;;;;;3.38;3.08;;;;;;;;;;6244188;22;20657;-47
2024/03/12 11:08:30;;;;;;;3.60;3.08;;;;;;;;;;6244555;22;20250;-47
2024/03/12 11:11:00;;;;;;;3.15;2.85;;;;;;;;;;6243866;22;20491;-46
2024/03/12 11:13:28;;;;;;;3.22;2.83;;;;;;;;;;6244361;23;20586;-50
2024/03/12 11:15:58;;;;;;;3.25;2.95;;;;;;;;;;6244309;22;20179;-47
2024/03/12 11:18:35;;;;;;;3.22;2.88;;;;;;;;;;6244370;23;20786;-47
2024/03/12 11:21:04;;;;;;;4.15;3.30;;;;;;;;;;6244103;23;20197;-48
2024/03/12 11:23:32;;;;;;;3.45;2.53;;;;;;;;;;6244012;22;20184;-47
2024/03/12 11:26:05;;;;;;;2.50;2.30;;;;;;;;;;6243975;22;20173;-49
2024/03/12 11:28:33;;;;;;;2.47;2.28;;;;;;;;;;6244458;23;20524;-49
2024/03/12 11:31:04;;;;;;;3.00;2.70;;;;;;;;;;6244157;22;20231;-49
2024/03/12 11:33:51;;;;;;;2.72;2.47;;;;;;;;;;6244480;23;20157;-47
2024/03/12 11:36:28;;;;;;;2.80;2.60;;;;;;;;;;6244514;23;20240;-48
2024/03/12 11:38:59;;;;;;;2.17;1.98;;;;;;;;;;6244198;23;20168;-47
2024/03/12 11:42:14;;;;;;;3.13;2.83;;;;;;;;;;6243884;22;20184;-47
2024/03/12 11:44:53;;;;;;;2.60;2.40;;;;;;;;;;6244352;23;20244;-48
2024/03/12 11:47:34;;;;;;;2.90;2.60;;;;;;;;;;6244447;22;20197;-47
2024/03/12 11:50:02;;;;;;;2.45;2.25;;;;;;;;;;6244450;23;20608;-47
2024/03/12 11:52:31;;;;;;;2.58;2.38;;;;;;;;;;6244179;23;20688;-46
2024/03/12 11:55:00;;;;;;;2.75;2.47;;;;;;;;;;6244866;23;20185;-48
2024/03/12 11:57:30;;;;;;;2.42;2.20;;;;;;;;;;6246073;23;20220;-47
2024/03/12 11:59:57;;;;;;;2.42;2.22;;;;;;;;;;6245814;22;20192;-46
2024/03/12 12:02:26;;;;;;;2.42;2.22;;;;;;;;;;6245499;22;20255;-47
2024/03/12 12:04:55;;;;;;;2.05;1.90;;;;;;;;;;6246393;22;20174;-48
2024/03/12 12:07:24;;;;;;;1.67;1.58;;;;;;;;;;6245710;22;20192;-47
2024/03/12 12:09:53;;;;;;;2.03;1.90;;;;;;;;;;6246281;23;20226;-49
2024/03/12 12:12:21;;;;;;;6.15;2.20;;;;;;;;;;6245485;22;20176;-48
2024/03/12 12:14:50;;;;;;;2.95;2.40;;;;;;;;;;6245942;22;20173;-48
2024/03/12 12:17:22;;;;;;;3.08;2.75;;;;;;;;;;6245969;22;20201;-47
2024/03/12 12:20:13;;;;;;;2.58;2.38;;;;;;;;;;6245715;22;20736;-48
2024/03/12 12:22:45;;;;;;;4.15;3.85;;;;;;;;;;6246009;23;20240;-47
2024/03/12 12:25:13;;;;;;;2.65;2.45;;;;;;;;;;6246213;23;20165;-51
2024/03/12 12:27:41;;;;;;;2.25;2.05;;;;;;;;;;6245202;22;20676;-47
2024/03/12 12:30:14;;;;;;;2.88;2.60;;;;;;;;;;6246230;23;20168;-47
2024/03/12 12:32:42;;;;;;;2.78;2.58;;;;;;;;;;6245446;23;20161;-47
2024/03/12 12:35:11;;;;;;;2.38;2.17;;;;;;;;;;6245854;22;20231;-47
2024/03/12 12:37:39;;;;;;;1.98;1.88;;;;;;;;;;6245612;23;20197;-47
2024/03/12 12:40:14;;;;;;;2.47;2.28;;;;;;;;;;6245927;23;20203;-48
2024/03/12 12:42:43;;;;;;;2.00;1.90;;;;;;;;;;6245487;22;20161;-47
2024/03/12 12:45:13;;;;;;;1.50;1.40;;;;;;;;;;6245680;23;20259;-50
2024/03/12 12:47:41;;;;;;;2.55;2.20;;;;;;;;;;6245540;23;20236;-49
2024/03/12 12:50:11;;;;;;;1.73;1.60;;;;;;;;;;6245763;22;20500;-47
2024/03/12 12:52:40;;;;;;;1.55;1.45;;;;;;;;;;6245173;23;20176;-51
2024/03/12 12:55:09;;;;;;;1.88;1.77;;;;;;;;;;6245840;23;20173;-50
2024/03/12 12:57:42;;;;;;;2.08;1.88;;;;;;;;;;6245876;23;20681;-48
2024/03/12 13:00:22;;;;;;;1.60;1.50;;;;;;;;;;6245887;22;20183;-50
2024/03/12 13:02:50;;;;;;;1.65;1.55;;;;;;;;;;6245395;23;20161;-47
2024/03/12 13:05:21;;;;;;;1.98;1.88;;;;;;;;;;6245271;22;20180;-51
2024/03/12 13:07:49;;;;;;;2.42;2.05;;;;;;;;;;6245700;23;20197;-51
2024/03/12 13:10:19;;;;;;;2.10;2.00;;;;;;;;;;6245403;23;20248;-52
2024/03/12 13:12:46;;;;;;;2.03;1.83;;;;;;;;;;6245428;22;20177;-47
2024/03/12 13:15:33;;;;;;;1.88;1.70;;;;;;;;;;6245748;23;20177;-48
2024/03/12 13:18:04;;;;;;;1.60;1.50;;;;;;;;;;6245194;23;20239;-49
2024/03/12 13:20:32;;;;;;;1.73;1.63;;;;;;;;;;6245642;23;20188;-48
2024/03/12 13:23:00;;;;;;;2.70;2.22;;;;;;;;;;6245327;23;20177;-48
2024/03/12 13:25:27;;;;;;;3.00;2.75;;;;;;;;;;6245284;22;20180;-50
2024/03/12 13:27:55;;;;;;;1.85;1.75;;;;;;;;;;6245493;22;20200;-52
2024/03/12 13:30:24;;;;;;;2.28;2.08;;;;;;;;;;6244804;22;20173;-51
2024/03/12 13:32:52;;;;;;;1.90;1.75;;;;;;;;;;6244861;22;20177;-47
2024/03/12 13:35:20;;;;;;;2.30;2.10;;;;;;;;;;6244683;22;20177;-49
2024/03/12 13:37:47;;;;;;;1.77;1.67;;;;;;;;;;6244969;22;20199;-50
2024/03/12 13:40:15;;;;;;;1.92;1.73;;;;;;;;;;6244923;22;20173;-49
2024/03/12 13:42:42;;;;;;;1.63;1.52;;;;;;;;;;6244741;23;20181;-47
2024/03/12 13:45:10;;;;;;;1.80;1.70;;;;;;;;;;6244939;22;20495;-47
2024/03/12 13:47:38;;;;;;;1.50;1.40;;;;;;;;;;6244572;22;20193;-49
2024/03/12 13:50:08;;;;;;;1.40;1.30;;;;;;;;;;6244772;22;20223;-47
2024/03/12 13:52:36;;;;;;;1.63;1.52;;;;;;;;;;6244595;22;20648;-46
2024/03/12 13:55:04;;;;;;;2.60;2.40;;;;;;;;;;6244866;22;20259;-49
2024/03/12 13:57:32;;;;;;;1.67;1.58;;;;;;;;;;6245220;23;20225;-48
2024/03/12 13:59:59;;;;;;;1.98;1.88;;;;;;;;;;6244893;22;20173;-50
2024/03/12 14:02:27;;;;;;;2.22;2.03;;;;;;;;;;6244395;22;20279;-48
2024/03/12 14:04:54;;;;;;;2.00;1.90;;;;;;;;;;6245153;22;20648;-47
2024/03/12 14:07:24;;;;;;;2.20;2.00;;;;;;;;;;6244067;22;20200;-52
2024/03/12 14:09:54;;;;;;;1.85;1.75;;;;;;;;;;6245393;23;20466;-47
2024/03/12 14:12:22;;;;;;;1.88;1.77;;;;;;;;;;6244871;23;20173;-48
2024/03/12 14:14:50;;;;;;;1.98;1.85;;;;;;;;;;6245016;23;20200;-50
2024/03/12 14:17:17;;;;;;;1.50;1.40;;;;;;;;;;6244552;22;20193;-49
2024/03/12 14:19:45;;;;;;;3.03;2.05;;;;;;;;;;6245002;22;20177;-49
2024/03/12 14:22:13;;;;;;;2.47;2.28;;;;;;;;;;6244310;22;20251;-47
2024/03/12 14:24:43;;;;;;;2.10;1.90;;;;;;;;;;6244115;22;20630;-47
2024/03/12 14:27:13;;;;;;;2.47;1.98;;;;;;;;;;6244935;22;20680;-47
2024/03/12 14:29:43;;;;;;;1.88;1.77;;;;;;;;;;6245162;23;20243;-49
2024/03/12 14:32:10;;;;;;;1.70;1.60;;;;;;;;;;6244749;23;20641;-50
2024/03/12 14:34:39;;;;;;;1.50;1.40;;;;;;;;;;6244810;22;20180;-47
2024/03/12 14:37:07;;;;;;;2.10;1.92;;;;;;;;;;6244350;23;20256;-48
2024/03/12 14:39:34;;;;;;;1.70;1.60;;;;;;;;;;6244478;22;20173;-47
2024/03/12 14:42:03;;;;;;;1.65;1.55;;;;;;;;;;6244087;22;20207;-50
2024/03/12 14:44:30;;;;;;;1.60;1.50;;;;;;;;;;6244944;23;20502;-47
2024/03/12 14:46:58;;;;;;;1.90;1.80;;;;;;;;;;6244358;22;20199;-48
2024/03/12 14:49:26;;;;;;;1.40;1.30;;;;;;;;;;6244647;23;20223;-48
2024/03/12 14:51:54;;;;;;;1.48;1.33;;;;;;;;;;6243894;22;20169;-49
2024/03/12 14:54:21;;;;;;;2.10;2.00;;;;;;;;;;6244559;23;20263;-47
2024/03/12 14:56:49;;;;;;;1.70;1.60;;;;;;;;;;6244383;22;20193;-50
2024/03/12 14:59:18;;;;;;;2.08;1.92;;;;;;;;;;6244318;22;20576;-52